Time;durP1;ratioP1;P1;durP2;ratioP2;P2;SDS_P1;SDS_P2;PMS_P1;PMS_P2;Temp;Humidity;BMP_temperature;BMP_pressure;BME280_temperature;BME280_humidity;BME280_pressure;Samples;Min_cycle;Max_cycle;Signal;HPM_P1;HPM_P2
2024/01/18 00:03:40;;;;;;;55.70;41.95;;;;;;;;;;10186355;28;20485;-72
2024/01/18 00:08:32;;;;;;;51.42;42.72;;;;;;;;;;10186425;28;20055;-71
2024/01/18 00:13:24;;;;;;;55.78;43.25;;;;;;;;;;10185543;28;20046;-72
2024/01/18 00:18:16;;;;;;;62.95;43.22;;;;;;;;;;10186177;28;20071;-72
2024/01/18 00:23:08;;;;;;;64.63;46.72;;;;;;;;;;10185235;28;20051;-72
2024/01/18 00:28:00;;;;;;;62.78;46.03;;;;;;;;;;10185823;28;20413;-72
2024/01/18 00:32:52;;;;;;;56.40;44.88;;;;;;;;;;10184940;28;20098;-72
2024/01/18 00:37:44;;;;;;;60.17;45.72;;;;;;;;;;10185109;28;20055;-72
2024/01/18 00:42:36;;;;;;;61.65;47.67;;;;;;;;;;10184724;28;20532;-72
2024/01/18 00:47:28;;;;;;;60.72;47.47;;;;;;;;;;10183917;28;20055;-72
2024/01/18 00:52:20;;;;;;;60.45;46.67;;;;;;;;;;10185076;28;20083;-72
2024/01/18 00:57:12;;;;;;;63.92;47.78;;;;;;;;;;10183899;28;20075;-71
2024/01/18 01:02:05;;;;;;;64.43;49.53;;;;;;;;;;10184635;28;20052;-72
2024/01/18 01:06:57;;;;;;;63.35;46.03;;;;;;;;;;10183721;28;20055;-72
2024/01/18 01:11:49;;;;;;;60.10;48.90;;;;;;;;;;10184744;28;20437;-71
2024/01/18 01:16:41;;;;;;;63.13;47.67;;;;;;;;;;10183510;28;20079;-72
2024/01/18 01:21:33;;;;;;;61.83;45.13;;;;;;;;;;10183927;28;20056;-71
2024/01/18 01:26:25;;;;;;;59.70;45.30;;;;;;;;;;10183405;28;20044;-71
2024/01/18 01:31:17;;;;;;;62.53;47.42;;;;;;;;;;10181572;28;20051;-71
2024/01/18 01:36:09;;;;;;;62.90;47.88;;;;;;;;;;10151476;28;20054;-71
2024/01/18 01:41:02;;;;;;;60.83;47.13;;;;;;;;;;10148179;28;20041;-71
2024/01/18 01:45:54;;;;;;;59.85;47.08;;;;;;;;;;10152251;28;20110;-71
2024/01/18 01:50:47;;;;;;;61.65;47.67;;;;;;;;;;10145770;28;20036;-71
2024/01/18 01:55:39;;;;;;;62.28;45.88;;;;;;;;;;10147632;28;20076;-72
2024/01/18 02:00:31;;;;;;;62.88;49.08;;;;;;;;;;10152710;28;20036;-72
2024/01/18 02:05:24;;;;;;;56.13;43.15;;;;;;;;;;10138297;28;20457;-71
2024/01/18 02:10:17;;;;;;;63.90;42.67;;;;;;;;;;10136225;28;20056;-72
2024/01/18 02:15:10;;;;;;;48.25;36.20;;;;;;;;;;10154249;28;20758;-72
2024/01/18 02:20:02;;;;;;;33.15;26.17;;;;;;;;;;10152168;28;20048;-72
2024/01/18 02:25:15;;;;;;;24.80;20.13;;;;;;;;;;10139910;28;20058;-72
2024/01/18 02:30:08;;;;;;;20.48;18.40;;;;;;;;;;10150764;28;20187;-71
2024/01/18 02:35:00;;;;;;;15.77;14.07;;;;;;;;;;10153992;28;20129;-71
2024/01/18 02:39:52;;;;;;;14.40;12.93;;;;;;;;;;10152299;28;20044;-71
2024/01/18 02:44:44;;;;;;;14.05;12.60;;;;;;;;;;10134843;28;20074;-72
2024/01/18 02:49:37;;;;;;;15.50;12.95;;;;;;;;;;10154408;28;20596;-71
2024/01/18 02:54:29;;;;;;;14.18;12.77;;;;;;;;;;10150453;28;20041;-72
2024/01/18 02:59:21;;;;;;;17.40;13.43;;;;;;;;;;10151756;28;20115;-71
2024/01/18 03:04:12;;;;;;;15.18;13.65;;;;;;;;;;10150539;28;20127;-71
2024/01/18 03:09:05;;;;;;;15.05;13.40;;;;;;;;;;10151810;28;20170;-71
2024/01/18 03:13:56;;;;;;;16.25;14.50;;;;;;;;;;10149237;28;20170;-71
2024/01/18 03:18:48;;;;;;;16.45;14.75;;;;;;;;;;10154431;28;20094;-71
2024/01/18 03:23:41;;;;;;;15.85;14.13;;;;;;;;;;10150851;28;20037;-70
2024/01/18 03:28:32;;;;;;;17.88;15.07;;;;;;;;;;10152382;28;20082;-70
2024/01/18 03:33:24;;;;;;;21.00;16.60;;;;;;;;;;10150964;28;20094;-70
2024/01/18 03:38:16;;;;;;;17.33;15.68;;;;;;;;;;10151181;28;20044;-71
2024/01/18 03:43:08;;;;;;;13.90;12.52;;;;;;;;;;10147849;28;20064;-70
2024/01/18 03:48:00;;;;;;;11.10;10.10;;;;;;;;;;10150384;28;20051;-71
2024/01/18 03:52:52;;;;;;;12.80;11.02;;;;;;;;;;10148387;28;20048;-71
2024/01/18 03:57:44;;;;;;;11.05;9.95;;;;;;;;;;10167239;28;20059;-71
2024/01/18 04:02:36;;;;;;;9.18;8.25;;;;;;;;;;10158030;28;20163;-71
2024/01/18 04:07:27;;;;;;;8.60;7.65;;;;;;;;;;10147710;28;20218;-71
2024/01/18 04:12:19;;;;;;;7.78;7.07;;;;;;;;;;10148535;28;20139;-71
2024/01/18 04:17:11;;;;;;;7.13;6.53;;;;;;;;;;10152658;28;20403;-71
2024/01/18 04:22:03;;;;;;;9.48;8.52;;;;;;;;;;10147439;28;20044;-71
2024/01/18 04:26:55;;;;;;;6.53;6.00;;;;;;;;;;10157350;28;20036;-71
2024/01/18 04:31:47;;;;;;;7.97;7.28;;;;;;;;;;10147949;28;20426;-71
2024/01/18 04:36:39;;;;;;;6.88;6.30;;;;;;;;;;10151285;28;20044;-71
2024/01/18 04:41:31;;;;;;;6.00;5.40;;;;;;;;;;10146002;28;20049;-71
2024/01/18 04:46:25;;;;;;;7.35;6.65;;;;;;;;;;10148081;28;20150;-71
2024/01/18 04:51:17;;;;;;;7.40;6.70;;;;;;;;;;10129107;28;20083;-71
2024/01/18 04:56:09;;;;;;;6.65;5.97;;;;;;;;;;10147923;28;20383;-71
2024/01/18 05:01:01;;;;;;;7.25;6.65;;;;;;;;;;10148387;28;20040;-71
2024/01/18 05:05:56;;;;;;;7.97;7.18;;;;;;;;;;10147414;28;20052;-71
2024/01/18 05:10:48;;;;;;;6.72;6.13;;;;;;;;;;10146513;28;20087;-71
2024/01/18 05:15:40;;;;;;;7.72;7.05;;;;;;;;;;10146388;28;20043;-72
2024/01/18 05:20:33;;;;;;;9.20;6.95;;;;;;;;;;10148658;28;20052;-71
2024/01/18 05:25:25;;;;;;;6.50;5.97;;;;;;;;;;10146739;28;20041;-71
2024/01/18 05:30:20;;;;;;;6.00;5.50;;;;;;;;;;10146956;28;20067;-71
2024/01/18 05:35:12;;;;;;;7.10;6.45;;;;;;;;;;10145395;28;20139;-71
2024/01/18 05:40:06;;;;;;;7.07;6.47;;;;;;;;;;10151839;28;20463;-73
2024/01/18 05:44:59;;;;;;;13.90;12.40;;;;;;;;;;10145683;28;20085;-71
2024/01/18 05:49:51;;;;;;;101.47;88.63;;;;;;;;;;10148531;28;20048;-71
2024/01/18 05:54:43;;;;;;;15.70;14.20;;;;;;;;;;10145429;28;20131;-70
2024/01/18 05:59:35;;;;;;;8.18;7.45;;;;;;;;;;10144137;28;20053;-70
2024/01/18 06:04:30;;;;;;;10.95;9.75;;;;;;;;;;10145837;28;20052;-70
2024/01/18 06:09:22;;;;;;;14.05;12.07;;;;;;;;;;10145967;28;20082;-70
2024/01/18 06:14:15;;;;;;;7.60;6.90;;;;;;;;;;10149798;28;20409;-70
2024/01/18 06:19:07;;;;;;;19.23;17.45;;;;;;;;;;10181174;28;20110;-70
2024/01/18 06:23:59;;;;;;;8.07;7.28;;;;;;;;;;10177946;28;20054;-71
2024/01/18 06:28:51;;;;;;;6.88;6.28;;;;;;;;;;10178413;28;20051;-70
2024/01/18 06:33:43;;;;;;;4.40;4.00;;;;;;;;;;10179456;28;20036;-70
2024/01/18 06:38:35;;;;;;;6.32;5.78;;;;;;;;;;10179988;28;20032;-71
2024/01/18 06:43:26;;;;;;;5.07;4.68;;;;;;;;;;10183759;28;20044;-70
2024/01/18 06:48:19;;;;;;;4.78;4.38;;;;;;;;;;10185679;28;20131;-71
2024/01/18 06:53:11;;;;;;;5.65;5.15;;;;;;;;;;10182877;28;20044;-71
2024/01/18 06:58:03;;;;;;;7.03;6.43;;;;;;;;;;10183582;28;20072;-70
2024/01/18 07:02:55;;;;;;;6.28;5.68;;;;;;;;;;10185703;28;20466;-70
2024/01/18 07:07:47;;;;;;;5.68;5.18;;;;;;;;;;10181559;28;20101;-70
2024/01/18 07:12:39;;;;;;;5.20;4.78;;;;;;;;;;10178620;28;20055;-70
2024/01/18 07:17:31;;;;;;;5.88;5.38;;;;;;;;;;10183976;28;20056;-70
2024/01/18 07:22:23;;;;;;;6.53;6.03;;;;;;;;;;10178597;28;20040;-69
2024/01/18 07:27:15;;;;;;;6.18;5.68;;;;;;;;;;10184821;28;20040;-70
2024/01/18 07:32:07;;;;;;;6.95;6.35;;;;;;;;;;10184520;28;20188;-71
2024/01/18 07:36:59;;;;;;;8.85;8.05;;;;;;;;;;10166701;28;20113;-71
2024/01/18 07:41:51;;;;;;;7.85;7.25;;;;;;;;;;10187594;28;20070;-70
2024/01/18 07:46:43;;;;;;;7.13;6.53;;;;;;;;;;10183593;28;20062;-69
2024/01/18 07:51:35;;;;;;;7.97;7.28;;;;;;;;;;10185214;28;20382;-75
2024/01/18 07:56:28;;;;;;;7.82;7.13;;;;;;;;;;10185521;28;20127;-75
2024/01/18 08:01:19;;;;;;;7.68;7.05;;;;;;;;;;10162547;28;20074;-76
2024/01/18 08:06:12;;;;;;;10.07;9.20;;;;;;;;;;10148000;28;20075;-74
2024/01/18 08:11:04;;;;;;;8.23;7.53;;;;;;;;;;10159648;28;20098;-74
2024/01/18 08:15:57;;;;;;;8.57;7.88;;;;;;;;;;10161090;28;20051;-74
2024/01/18 08:20:50;;;;;;;7.65;7.03;;;;;;;;;;10152039;28;20329;-74
2024/01/18 08:25:42;;;;;;;8.63;7.93;;;;;;;;;;10146602;28;20225;-74
2024/01/18 08:30:34;;;;;;;8.60;7.80;;;;;;;;;;10144966;28;20125;-75
2024/01/18 08:35:26;;;;;;;9.35;8.55;;;;;;;;;;10152947;28;20068;-74
2024/01/18 08:40:18;;;;;;;9.93;8.27;;;;;;;;;;10147277;28;20041;-73
2024/01/18 08:45:10;;;;;;;15.45;13.88;;;;;;;;;;10143532;28;20057;-73
2024/01/18 08:50:03;;;;;;;10.02;9.13;;;;;;;;;;10148244;28;20048;-74
2024/01/18 08:54:55;;;;;;;11.07;10.18;;;;;;;;;;10146069;28;20052;-75
2024/01/18 08:59:47;;;;;;;13.55;12.32;;;;;;;;;;10142227;28;20066;-74
2024/01/18 09:04:38;;;;;;;12.07;10.98;;;;;;;;;;10142823;28;20064;-73
2024/01/18 09:09:31;;;;;;;11.75;10.70;;;;;;;;;;10144433;28;20043;-74
2024/01/18 09:14:23;;;;;;;10.32;9.32;;;;;;;;;;10153055;28;20048;-73
2024/01/18 09:19:15;;;;;;;11.73;10.63;;;;;;;;;;10144593;28;20045;-74
2024/01/18 09:24:08;;;;;;;11.60;10.52;;;;;;;;;;10145467;28;20110;-73
2024/01/18 09:29:00;;;;;;;10.82;9.85;;;;;;;;;;10151590;28;20044;-73
2024/01/18 09:33:51;;;;;;;10.07;9.18;;;;;;;;;;10156015;28;20045;-73
2024/01/18 09:38:43;;;;;;;9.65;8.70;;;;;;;;;;10144529;28;20068;-73
2024/01/18 09:43:38;;;;;;;11.25;10.15;;;;;;;;;;10144369;28;20114;-74
2024/01/18 09:48:30;;;;;;;10.70;9.70;;;;;;;;;;10153156;28;20370;-73
2024/01/18 09:53:22;;;;;;;10.55;9.55;;;;;;;;;;10149908;28;20036;-74
2024/01/18 09:58:13;;;;;;;10.88;9.77;;;;;;;;;;10145107;28;20059;-74
2024/01/18 10:03:05;;;;;;;12.07;10.88;;;;;;;;;;10152284;28;20044;-74
2024/01/18 10:07:57;;;;;;;10.43;9.43;;;;;;;;;;10126367;28;20051;-74
2024/01/18 10:12:50;;;;;;;11.60;10.50;;;;;;;;;;10142334;28;20569;-73
2024/01/18 10:17:42;;;;;;;12.35;11.05;;;;;;;;;;10152682;28;20467;-74
2024/01/18 10:22:34;;;;;;;12.93;11.82;;;;;;;;;;10156500;28;20151;-75
2024/01/18 10:27:28;;;;;;;11.88;10.77;;;;;;;;;;10134626;28;20131;-73
2024/01/18 10:32:20;;;;;;;11.13;10.02;;;;;;;;;;10132685;28;20608;-74
2024/01/18 10:37:17;;;;;;;12.23;11.13;;;;;;;;;;10151891;28;20094;-74
2024/01/18 10:42:10;;;;;;;11.63;10.52;;;;;;;;;;10159898;28;20036;-75
2024/01/18 10:47:15;;;;;;;11.35;10.35;;;;;;;;;;10155636;28;20117;-74
2024/01/18 10:52:09;;;;;;;10.57;9.32;;;;;;;;;;10150718;28;20483;-74
2024/01/18 10:57:01;;;;;;;14.07;12.40;;;;;;;;;;10150968;28;20053;-73
2024/01/18 11:01:54;;;;;;;12.32;11.13;;;;;;;;;;10133318;28;20479;-74
2024/01/18 11:06:47;;;;;;;13.27;11.98;;;;;;;;;;10149888;28;20374;-74
2024/01/18 11:11:39;;;;;;;15.05;13.48;;;;;;;;;;10136013;28;20533;-74
2024/01/18 11:16:31;;;;;;;13.45;12.10;;;;;;;;;;10134809;28;20048;-75
2024/01/18 11:21:27;;;;;;;14.00;12.60;;;;;;;;;;10152513;28;20094;-74
2024/01/18 11:26:21;;;;;;;15.68;14.02;;;;;;;;;;10131314;28;20041;-75
2024/01/18 11:31:13;;;;;;;14.48;13.18;;;;;;;;;;10151007;28;20062;-76
2024/01/18 11:36:08;;;;;;;14.55;13.10;;;;;;;;;;10130081;28;20465;-76
2024/01/18 11:41:09;;;;;;;14.45;13.07;;;;;;;;;;10149411;28;20072;-77
2024/01/18 11:46:01;;;;;;;12.95;11.73;;;;;;;;;;10147317;28;20044;-76
2024/01/18 11:50:54;;;;;;;15.80;14.20;;;;;;;;;;10154842;28;20040;-77
2024/01/18 11:55:48;;;;;;;15.10;13.68;;;;;;;;;;10133722;28;20519;-75
2024/01/18 12:00:41;;;;;;;15.25;13.85;;;;;;;;;;10133844;28;20038;-76
2024/01/18 12:05:35;;;;;;;16.30;14.73;;;;;;;;;;10185842;28;20070;-76
2024/01/18 12:10:28;;;;;;;16.90;15.18;;;;;;;;;;10185933;28;20093;-76
2024/01/18 12:15:20;;;;;;;18.20;16.50;;;;;;;;;;10184719;28;20099;-76
2024/01/18 12:20:17;;;;;;;17.63;15.88;;;;;;;;;;10167387;28;20524;-76
2024/01/18 12:25:10;;;;;;;19.30;17.33;;;;;;;;;;10184532;28;20048;-74
2024/01/18 12:30:03;;;;;;;18.58;16.80;;;;;;;;;;10152357;28;20135;-74
2024/01/18 12:34:57;;;;;;;23.35;17.75;;;;;;;;;;10146640;28;20067;-75
2024/01/18 12:39:52;;;;;;;22.25;19.83;;;;;;;;;;10146224;28;20055;-76
2024/01/18 12:44:44;;;;;;;19.05;17.08;;;;;;;;;;10147643;28;20357;-76
2024/01/18 12:49:36;;;;;;;19.05;17.00;;;;;;;;;;10152832;28;20036;-76
2024/01/18 12:54:28;;;;;;;21.80;18.02;;;;;;;;;;10146514;28;20135;-76
2024/01/18 12:59:23;;;;;;;23.23;20.77;;;;;;;;;;10151190;28;20087;-76
2024/01/18 13:04:22;;;;;;;20.45;18.23;;;;;;;;;;10148194;28;20044;-73
2024/01/18 13:09:14;;;;;;;21.55;19.08;;;;;;;;;;10145502;28;20487;-76
2024/01/18 13:14:07;;;;;;;19.80;17.63;;;;;;;;;;10149283;28;20082;-76
2024/01/18 13:19:03;;;;;;;21.02;18.38;;;;;;;;;;10127961;28;20493;-76
2024/01/18 13:23:56;;;;;;;19.63;17.08;;;;;;;;;;10143229;28;20079;-76
2024/01/18 13:28:48;;;;;;;22.83;19.15;;;;;;;;;;10146975;28;20124;-76
2024/01/18 13:33:40;;;;;;;20.58;17.98;;;;;;;;;;10146717;28;20078;-76
2024/01/18 13:38:33;;;;;;;23.60;19.55;;;;;;;;;;10144421;28;20170;-75
2024/01/18 13:43:25;;;;;;;20.13;18.08;;;;;;;;;;10145145;28;20466;-75
2024/01/18 13:48:18;;;;;;;21.98;19.60;;;;;;;;;;10145363;28;20068;-76
2024/01/18 13:53:14;;;;;;;22.75;19.33;;;;;;;;;;10169455;28;20047;-75
2024/01/18 13:58:07;;;;;;;18.77;16.88;;;;;;;;;;10155543;28;20090;-76
2024/01/18 14:03:00;;;;;;;22.30;19.15;;;;;;;;;;10153898;28;20067;-76
2024/01/18 14:07:52;;;;;;;19.95;18.05;;;;;;;;;;10152438;28;20040;-76
2024/01/18 14:12:44;;;;;;;33.10;21.77;;;;;;;;;;10168214;28;20075;-75
2024/01/18 14:17:36;;;;;;;21.55;19.13;;;;;;;;;;10150901;28;20072;-76
2024/01/18 14:22:28;;;;;;;21.70;19.02;;;;;;;;;;10168095;28;20043;-75
2024/01/18 14:27:20;;;;;;;20.92;18.83;;;;;;;;;;10171118;28;20045;-77
2024/01/18 14:32:13;;;;;;;20.38;18.27;;;;;;;;;;10168152;28;20048;-76
2024/01/18 14:37:05;;;;;;;21.27;19.10;;;;;;;;;;10167467;28;20043;-76
2024/01/18 14:41:57;;;;;;;27.90;24.05;;;;;;;;;;10162755;28;20041;-76
2024/01/18 14:46:49;;;;;;;22.48;18.67;;;;;;;;;;10171167;28;20059;-75
2024/01/18 14:51:41;;;;;;;27.00;21.60;;;;;;;;;;10157129;28;20467;-74
2024/01/18 14:56:33;;;;;;;56.42;38.17;;;;;;;;;;10154052;28;20148;-75
2024/01/18 15:01:24;;;;;;;31.65;25.92;;;;;;;;;;10156853;28;20120;-75
2024/01/18 15:06:16;;;;;;;27.30;23.98;;;;;;;;;;10151358;28;20097;-75
2024/01/18 15:11:09;;;;;;;28.75;23.55;;;;;;;;;;10134610;28;20037;-75
2024/01/18 15:16:01;;;;;;;27.02;23.85;;;;;;;;;;10153804;28;20060;-75
2024/01/18 15:20:57;;;;;;;29.55;23.42;;;;;;;;;;10157439;28;20039;-75
2024/01/18 15:25:49;;;;;;;59.20;45.40;;;;;;;;;;10152185;28;20502;-76
2024/01/18 15:30:41;;;;;;;42.65;35.45;;;;;;;;;;10157702;28;20140;-75
2024/01/18 15:35:33;;;;;;;21.35;18.10;;;;;;;;;;10162017;28;20080;-75
2024/01/18 15:40:25;;;;;;;42.33;35.33;;;;;;;;;;10177404;28;20071;-75
2024/01/18 15:45:17;;;;;;;32.97;27.10;;;;;;;;;;10151441;28;20098;-75
2024/01/18 15:50:09;;;;;;;40.67;27.33;;;;;;;;;;10148121;28;20047;-76
2024/01/18 15:55:02;;;;;;;39.42;31.65;;;;;;;;;;10155562;28;20143;-76
2024/01/18 15:59:56;;;;;;;33.00;27.92;;;;;;;;;;10155287;28;20086;-78
2024/01/18 16:04:50;;;;;;;27.55;24.52;;;;;;;;;;10169447;28;20178;-79
2024/01/18 16:09:42;;;;;;;18.10;16.30;;;;;;;;;;10169637;28;20048;-79
2024/01/18 16:14:35;;;;;;;23.23;20.73;;;;;;;;;;10178046;28;20086;-79
2024/01/18 16:19:27;;;;;;;23.88;20.45;;;;;;;;;;10170505;28;20378;-80
2024/01/18 16:24:19;;;;;;;24.30;21.23;;;;;;;;;;10160118;28;20143;-80
2024/01/18 16:29:11;;;;;;;190.05;132.60;;;;;;;;;;10158215;28;20040;-80
2024/01/18 16:34:03;;;;;;;51.85;36.50;;;;;;;;;;10160592;28;20332;-80
2024/01/18 16:38:55;;;;;;;101.25;74.38;;;;;;;;;;10167594;28;20050;-79
2024/01/18 16:43:48;;;;;;;42.53;35.03;;;;;;;;;;10151653;28;20056;-78
2024/01/18 16:48:40;;;;;;;31.98;26.00;;;;;;;;;;10162439;28;20075;-78
2024/01/18 16:53:32;;;;;;;36.50;30.08;;;;;;;;;;10164565;28;20059;-76
2024/01/18 16:58:27;;;;;;;26.27;23.58;;;;;;;;;;10157171;28;20113;-78
2024/01/18 17:03:21;;;;;;;30.73;26.35;;;;;;;;;;10152555;28;20120;-78
2024/01/18 17:08:13;;;;;;;33.30;25.60;;;;;;;;;;10143344;28;20068;-76
2024/01/18 17:13:05;;;;;;;29.42;26.23;;;;;;;;;;10144056;28;20060;-77
2024/01/18 17:17:57;;;;;;;32.00;28.52;;;;;;;;;;10141734;28;20055;-77
2024/01/18 17:22:49;;;;;;;47.47;36.33;;;;;;;;;;10125470;28;20105;-76
2024/01/18 17:27:41;;;;;;;31.95;26.30;;;;;;;;;;10149002;28;20089;-78
2024/01/18 17:32:33;;;;;;;36.17;31.90;;;;;;;;;;10153231;28;20174;-76
2024/01/18 17:37:25;;;;;;;30.30;26.48;;;;;;;;;;10161215;28;20040;-76
2024/01/18 17:42:17;;;;;;;37.38;33.45;;;;;;;;;;10148181;28;20375;-74
2024/01/18 17:47:10;;;;;;;31.00;27.90;;;;;;;;;;10136027;28;20483;-75
2024/01/18 17:52:03;;;;;;;32.03;28.77;;;;;;;;;;10148746;28;20171;-75
2024/01/18 17:56:55;;;;;;;33.92;29.48;;;;;;;;;;10157474;28;20094;-74
2024/01/18 18:01:47;;;;;;;29.48;26.50;;;;;;;;;;10158051;28;20117;-74
2024/01/18 18:06:39;;;;;;;29.50;26.30;;;;;;;;;;10142516;28;20083;-75
2024/01/18 18:11:31;;;;;;;36.22;31.00;;;;;;;;;;10144247;28;20041;-73
2024/01/18 18:16:23;;;;;;;41.50;36.50;;;;;;;;;;10145445;28;20143;-74
2024/01/18 18:21:20;;;;;;;37.33;33.42;;;;;;;;;;10163692;28;20119;-73
2024/01/18 18:26:12;;;;;;;42.95;35.97;;;;;;;;;;10156996;28;20465;-73
2024/01/18 18:31:04;;;;;;;39.70;33.20;;;;;;;;;;10157055;28;20044;-74
2024/01/18 18:35:56;;;;;;;38.22;31.00;;;;;;;;;;10147880;28;20430;-74
2024/01/18 18:40:48;;;;;;;41.83;33.13;;;;;;;;;;10149121;28;20052;-74
2024/01/18 18:45:40;;;;;;;95.90;57.45;;;;;;;;;;10151737;28;20424;-73
2024/01/18 18:50:31;;;;;;;45.83;34.83;;;;;;;;;;10149820;28;20159;-73
2024/01/18 18:55:23;;;;;;;41.20;34.70;;;;;;;;;;10150931;28;20405;-74
2024/01/18 19:00:15;;;;;;;36.42;30.48;;;;;;;;;;10150708;28;20063;-73
2024/01/18 19:05:07;;;;;;;38.05;29.67;;;;;;;;;;10150188;28;20429;-73
2024/01/18 19:10:00;;;;;;;40.70;31.90;;;;;;;;;;10158840;28;20045;-74
2024/01/18 19:14:51;;;;;;;46.28;34.10;;;;;;;;;;10151257;28;20132;-73
2024/01/18 19:19:43;;;;;;;55.45;37.30;;;;;;;;;;10150089;28;20055;-74
2024/01/18 19:24:35;;;;;;;40.85;32.40;;;;;;;;;;10148556;28;20457;-73
2024/01/18 19:29:28;;;;;;;53.75;40.45;;;;;;;;;;10149152;28;20044;-73
2024/01/18 19:34:20;;;;;;;43.58;34.28;;;;;;;;;;10149846;28;20051;-73
2024/01/18 19:39:13;;;;;;;44.80;32.40;;;;;;;;;;10153720;28;20387;-73
2024/01/18 19:44:05;;;;;;;50.95;39.13;;;;;;;;;;10171330;28;20410;-74
2024/01/18 19:48:59;;;;;;;44.25;36.50;;;;;;;;;;10153637;28;20090;-74
2024/01/18 19:53:51;;;;;;;51.17;40.03;;;;;;;;;;10150034;28;20422;-75
2024/01/18 19:58:43;;;;;;;45.80;37.38;;;;;;;;;;10162787;28;20419;-73
2024/01/18 20:03:35;;;;;;;47.25;36.65;;;;;;;;;;10148991;28;20045;-73
2024/01/18 20:08:28;;;;;;;48.70;39.60;;;;;;;;;;10146610;28;20055;-73
2024/01/18 20:13:20;;;;;;;55.92;39.28;;;;;;;;;;10143864;28;20055;-73
2024/01/18 20:18:12;;;;;;;55.13;41.97;;;;;;;;;;10146731;28;20113;-74
2024/01/18 20:23:04;;;;;;;54.67;41.70;;;;;;;;;;10147491;28;20036;-74
2024/01/18 20:27:57;;;;;;;45.55;35.40;;;;;;;;;;10148367;28;20605;-74
2024/01/18 20:32:52;;;;;;;45.13;36.78;;;;;;;;;;10153281;28;20055;-74
2024/01/18 20:37:44;;;;;;;46.42;38.80;;;;;;;;;;10143081;28;20080;-73
2024/01/18 20:42:37;;;;;;;47.60;37.70;;;;;;;;;;10142286;28;20426;-73
2024/01/18 20:47:29;;;;;;;51.17;42.10;;;;;;;;;;10145877;28;20048;-73
2024/01/18 20:52:21;;;;;;;65.95;46.83;;;;;;;;;;10145957;28;20371;-73
2024/01/18 20:57:12;;;;;;;58.65;43.92;;;;;;;;;;10153228;28;20048;-73
2024/01/18 21:02:04;;;;;;;58.90;46.55;;;;;;;;;;10148843;28;20070;-72
2024/01/18 21:06:56;;;;;;;78.90;47.00;;;;;;;;;;10145755;28;20041;-72
2024/01/18 21:11:48;;;;;;;71.80;48.40;;;;;;;;;;10145403;28;20056;-73
2024/01/18 21:16:40;;;;;;;63.63;46.40;;;;;;;;;;10154262;28;20435;-73
2024/01/18 21:21:33;;;;;;;71.95;48.53;;;;;;;;;;10146833;28;20040;-73
2024/01/18 21:26:25;;;;;;;66.97;47.85;;;;;;;;;;10144470;28;20098;-74
2024/01/18 21:31:17;;;;;;;87.28;52.63;;;;;;;;;;10144854;28;20052;-75
2024/01/18 21:36:09;;;;;;;85.20;57.85;;;;;;;;;;10148293;28;20044;-77
2024/01/18 21:41:01;;;;;;;95.82;54.30;;;;;;;;;;10146164;28;20040;-76
2024/01/18 21:45:55;;;;;;;95.28;58.85;;;;;;;;;;10156962;28;20059;-75
2024/01/18 21:50:47;;;;;;;92.35;55.83;;;;;;;;;;10174019;28;20455;-75
2024/01/18 21:55:39;;;;;;;101.35;61.67;;;;;;;;;;10182059;28;20047;-75
2024/01/18 22:00:32;;;;;;;102.68;59.53;;;;;;;;;;10182706;28;20032;-75
2024/01/18 22:05:24;;;;;;;83.30;52.72;;;;;;;;;;10182135;28;20518;-75
2024/01/18 22:10:17;;;;;;;114.97;63.88;;;;;;;;;;10182140;28;20052;-75
2024/01/18 22:15:09;;;;;;;115.80;67.95;;;;;;;;;;10187830;28;20040;-76
2024/01/18 22:20:02;;;;;;;164.70;87.32;;;;;;;;;;10190144;28;20127;-75
2024/01/18 22:24:57;;;;;;;129.93;76.57;;;;;;;;;;10182316;28;20443;-75
2024/01/18 22:29:50;;;;;;;122.47;74.63;;;;;;;;;;10157620;28;20137;-75
2024/01/18 22:34:42;;;;;;;119.75;72.70;;;;;;;;;;10146553;28;20136;-75
2024/01/18 22:39:34;;;;;;;98.57;59.08;;;;;;;;;;10147934;28;20049;-75
2024/01/18 22:44:26;;;;;;;78.97;51.15;;;;;;;;;;10150457;28;20106;-75
2024/01/18 22:49:18;;;;;;;89.57;56.08;;;;;;;;;;10150652;28;20048;-75
2024/01/18 22:54:10;;;;;;;91.78;58.58;;;;;;;;;;10152781;28;20040;-75
2024/01/18 22:59:02;;;;;;;85.47;53.33;;;;;;;;;;10147378;28;20070;-74
2024/01/18 23:03:54;;;;;;;71.18;47.88;;;;;;;;;;10179183;28;20044;-74
2024/01/18 23:08:46;;;;;;;77.97;52.78;;;;;;;;;;10188454;28;20055;-78
2024/01/18 23:13:38;;;;;;;75.63;48.38;;;;;;;;;;10188781;28;20052;-74
2024/01/18 23:18:30;;;;;;;71.28;50.80;;;;;;;;;;10188834;28;20138;-75
2024/01/18 23:23:22;;;;;;;71.00;50.90;;;;;;;;;;10187764;28;20466;-75
2024/01/18 23:28:14;;;;;;;99.68;68.43;;;;;;;;;;10170895;28;20037;-71
2024/01/18 23:33:06;;;;;;;98.32;60.72;;;;;;;;;;10153298;28;20383;-72
2024/01/18 23:37:58;;;;;;;85.70;55.42;;;;;;;;;;10149877;28;20048;-72
2024/01/18 23:42:50;;;;;;;78.18;53.38;;;;;;;;;;10178843;28;20422;-71
2024/01/18 23:47:42;;;;;;;72.38;50.75;;;;;;;;;;10183921;28;20065;-71
2024/01/18 23:52:33;;;;;;;77.28;53.90;;;;;;;;;;10184434;28;20379;-72
2024/01/18 23:57:25;;;;;;;69.95;49.53;;;;;;;;;;10183887;28;20485;-71
